sensor_id;sensor_type;location;lat;lon;timestamp;P1;durP1;ratioP1;P2;durP2;ratioP2
70385;SDS011;63206;55.650;37.500;2022-09-06T00:00:45;6.68;;;2.13;;
70385;SDS011;63206;55.650;37.500;2022-09-06T00:03:15;4.68;;;1.95;;
70385;SDS011;63206;55.650;37.500;2022-09-06T00:05:47;3.65;;;1.70;;
70385;SDS011;63206;55.650;37.500;2022-09-06T00:08:16;3.60;;;1.90;;
70385;SDS011;63206;55.650;37.500;2022-09-06T00:10:47;4.68;;;2.05;;
70385;SDS011;63206;55.650;37.500;2022-09-06T00:13:25;4.18;;;1.85;;
70385;SDS011;63206;55.650;37.500;2022-09-06T00:15:54;5.13;;;2.17;;
70385;SDS011;63206;55.650;37.500;2022-09-06T00:18:24;4.85;;;2.28;;
70385;SDS011;63206;55.650;37.500;2022-09-06T00:20:50;5.47;;;2.30;;
70385;SDS011;63206;55.650;37.500;2022-09-06T00:23:18;3.70;;;2.00;;
70385;SDS011;63206;55.650;37.500;2022-09-06T00:25:44;4.75;;;1.83;;
70385;SDS011;63206;55.650;37.500;2022-09-06T00:28:14;3.72;;;2.15;;
70385;SDS011;63206;55.650;37.500;2022-09-06T00:30:44;4.57;;;2.08;;
70385;SDS011;63206;55.650;37.500;2022-09-06T00:33:13;4.07;;;2.00;;
70385;SDS011;63206;55.650;37.500;2022-09-06T00:35:39;3.92;;;2.00;;
70385;SDS011;63206;55.650;37.500;2022-09-06T00:38:06;4.60;;;2.10;;
70385;SDS011;63206;55.650;37.500;2022-09-06T00:40:32;3.60;;;1.83;;
70385;SDS011;63206;55.650;37.500;2022-09-06T00:43:07;4.32;;;1.75;;
70385;SDS011;63206;55.650;37.500;2022-09-06T00:45:33;3.55;;;1.77;;
70385;SDS011;63206;55.650;37.500;2022-09-06T00:48:04;3.65;;;1.80;;
70385;SDS011;63206;55.650;37.500;2022-09-06T00:50:33;3.97;;;2.00;;
70385;SDS011;63206;55.650;37.500;2022-09-06T00:52:59;4.28;;;1.73;;
70385;SDS011;63206;55.650;37.500;2022-09-06T00:55:28;3.08;;;1.58;;
70385;SDS011;63206;55.650;37.500;2022-09-06T00:57:55;4.18;;;1.98;;
70385;SDS011;63206;55.650;37.500;2022-09-06T01:00:24;2.85;;;1.80;;
70385;SDS011;63206;55.650;37.500;2022-09-06T01:02:53;3.78;;;1.73;;
70385;SDS011;63206;55.650;37.500;2022-09-06T01:05:27;5.05;;;2.10;;
70385;SDS011;63206;55.650;37.500;2022-09-06T01:13:54;2.88;;;1.65;;
70385;SDS011;63206;55.650;37.500;2022-09-06T01:23:16;4.45;;;1.98;;
70385;SDS011;63206;55.650;37.500;2022-09-06T01:31:23;4.50;;;1.98;;
70385;SDS011;63206;55.650;37.500;2022-09-06T01:34:34;4.80;;;2.05;;
70385;SDS011;63206;55.650;37.500;2022-09-06T01:37:07;4.10;;;2.00;;
70385;SDS011;63206;55.650;37.500;2022-09-06T01:39:38;5.15;;;2.13;;
70385;SDS011;63206;55.650;37.500;2022-09-06T01:42:17;4.07;;;2.08;;
70385;SDS011;63206;55.650;37.500;2022-09-06T01:44:51;4.45;;;2.25;;
70385;SDS011;63206;55.650;37.500;2022-09-06T01:47:37;3.80;;;2.00;;
70385;SDS011;63206;55.650;37.500;2022-09-06T01:50:26;3.25;;;1.90;;
70385;SDS011;63206;55.650;37.500;2022-09-06T01:56:44;4.07;;;2.20;;
70385;SDS011;63206;55.650;37.500;2022-09-06T01:59:04;5.35;;;2.30;;
70385;SDS011;63206;55.650;37.500;2022-09-06T02:02:00;3.95;;;2.22;;
70385;SDS011;63206;55.650;37.500;2022-09-06T02:04:35;4.40;;;2.30;;
70385;SDS011;63206;55.650;37.500;2022-09-06T02:07:16;3.78;;;2.10;;
70385;SDS011;63206;55.650;37.500;2022-09-06T02:09:45;6.63;;;2.30;;
70385;SDS011;63206;55.650;37.500;2022-09-06T02:12:19;6.22;;;2.30;;
70385;SDS011;63206;55.650;37.500;2022-09-06T02:14:54;4.25;;;2.13;;
70385;SDS011;63206;55.650;37.500;2022-09-06T02:17:25;6.00;;;2.40;;
70385;SDS011;63206;55.650;37.500;2022-09-06T02:22:42;4.60;;;2.28;;
70385;SDS011;63206;55.650;37.500;2022-09-06T02:25:33;4.43;;;2.30;;
70385;SDS011;63206;55.650;37.500;2022-09-06T02:28:04;4.95;;;2.25;;
70385;SDS011;63206;55.650;37.500;2022-09-06T02:30:40;6.60;;;2.70;;
70385;SDS011;63206;55.650;37.500;2022-09-06T02:33:13;5.57;;;2.88;;
70385;SDS011;63206;55.650;37.500;2022-09-06T02:35:47;4.85;;;2.55;;
70385;SDS011;63206;55.650;37.500;2022-09-06T02:38:22;5.10;;;2.40;;
70385;SDS011;63206;55.650;37.500;2022-09-06T02:40:50;5.75;;;2.33;;
70385;SDS011;63206;55.650;37.500;2022-09-06T02:43:24;5.50;;;2.40;;
70385;SDS011;63206;55.650;37.500;2022-09-06T02:45:52;5.03;;;2.60;;
70385;SDS011;63206;55.650;37.500;2022-09-06T02:48:30;7.95;;;2.88;;
70385;SDS011;63206;55.650;37.500;2022-09-06T02:50:56;7.43;;;2.80;;
70385;SDS011;63206;55.650;37.500;2022-09-06T02:53:22;7.70;;;2.83;;
70385;SDS011;63206;55.650;37.500;2022-09-06T02:55:51;5.65;;;2.88;;
70385;SDS011;63206;55.650;37.500;2022-09-06T02:58:21;6.72;;;2.85;;
70385;SDS011;63206;55.650;37.500;2022-09-06T03:00:48;5.15;;;2.65;;
70385;SDS011;63206;55.650;37.500;2022-09-06T03:03:19;6.15;;;2.67;;
70385;SDS011;63206;55.650;37.500;2022-09-06T03:05:54;9.10;;;3.65;;
70385;SDS011;63206;55.650;37.500;2022-09-06T03:08:23;6.47;;;2.88;;
70385;SDS011;63206;55.650;37.500;2022-09-06T03:10:54;8.20;;;3.45;;
70385;SDS011;63206;55.650;37.500;2022-09-06T03:13:30;5.57;;;2.67;;
70385;SDS011;63206;55.650;37.500;2022-09-06T03:16:02;5.60;;;2.35;;
70385;SDS011;63206;55.650;37.500;2022-09-06T03:18:31;5.43;;;2.55;;
70385;SDS011;63206;55.650;37.500;2022-09-06T03:21:00;8.15;;;3.05;;
70385;SDS011;63206;55.650;37.500;2022-09-06T03:23:29;5.13;;;2.63;;
70385;SDS011;63206;55.650;37.500;2022-09-06T03:25:55;7.65;;;2.90;;
70385;SDS011;63206;55.650;37.500;2022-09-06T03:28:24;7.07;;;2.83;;
70385;SDS011;63206;55.650;37.500;2022-09-06T03:30:53;6.90;;;2.70;;
70385;SDS011;63206;55.650;37.500;2022-09-06T03:33:23;5.55;;;2.80;;
70385;SDS011;63206;55.650;37.500;2022-09-06T03:35:50;5.95;;;2.72;;
70385;SDS011;63206;55.650;37.500;2022-09-06T03:38:27;5.25;;;2.50;;
70385;SDS011;63206;55.650;37.500;2022-09-06T03:40:56;6.18;;;2.75;;
70385;SDS011;63206;55.650;37.500;2022-09-06T03:43:26;5.32;;;2.58;;
70385;SDS011;63206;55.650;37.500;2022-09-06T03:45:55;8.07;;;3.10;;
70385;SDS011;63206;55.650;37.500;2022-09-06T03:48:26;6.47;;;2.50;;
70385;SDS011;63206;55.650;37.500;2022-09-06T03:50:55;5.60;;;2.47;;
70385;SDS011;63206;55.650;37.500;2022-09-06T03:53:26;8.15;;;2.83;;
70385;SDS011;63206;55.650;37.500;2022-09-06T03:55:56;6.80;;;3.42;;
70385;SDS011;63206;55.650;37.500;2022-09-06T03:58:23;6.85;;;3.20;;
70385;SDS011;63206;55.650;37.500;2022-09-06T04:01:00;7.18;;;2.97;;
70385;SDS011;63206;55.650;37.500;2022-09-06T04:03:32;8.57;;;3.08;;
70385;SDS011;63206;55.650;37.500;2022-09-06T04:05:59;6.53;;;2.90;;
70385;SDS011;63206;55.650;37.500;2022-09-06T04:08:26;5.97;;;2.60;;
70385;SDS011;63206;55.650;37.500;2022-09-06T04:10:58;6.72;;;2.60;;
70385;SDS011;63206;55.650;37.500;2022-09-06T04:13:28;5.15;;;2.70;;
70385;SDS011;63206;55.650;37.500;2022-09-06T04:15:54;5.32;;;2.60;;
70385;SDS011;63206;55.650;37.500;2022-09-06T04:18:21;5.55;;;2.22;;
70385;SDS011;63206;55.650;37.500;2022-09-06T04:20:51;4.43;;;2.30;;
70385;SDS011;63206;55.650;37.500;2022-09-06T04:23:21;4.82;;;2.60;;
70385;SDS011;63206;55.650;37.500;2022-09-06T04:25:52;4.82;;;2.05;;
70385;SDS011;63206;55.650;37.500;2022-09-06T04:28:20;5.32;;;2.22;;
70385;SDS011;63206;55.650;37.500;2022-09-06T04:33:23;5.28;;;2.33;;
70385;SDS011;63206;55.650;37.500;2022-09-06T04:35:57;3.45;;;1.90;;
70385;SDS011;63206;55.650;37.500;2022-09-06T04:38:25;3.70;;;2.10;;
70385;SDS011;63206;55.650;37.500;2022-09-06T04:40:52;4.28;;;2.00;;
70385;SDS011;63206;55.650;37.500;2022-09-06T04:43:24;4.32;;;1.83;;
70385;SDS011;63206;55.650;37.500;2022-09-06T04:45:50;4.57;;;2.03;;
70385;SDS011;63206;55.650;37.500;2022-09-06T04:48:19;3.25;;;1.80;;
70385;SDS011;63206;55.650;37.500;2022-09-06T04:50:45;3.15;;;1.70;;
70385;SDS011;63206;55.650;37.500;2022-09-06T04:53:11;4.05;;;1.50;;
70385;SDS011;63206;55.650;37.500;2022-09-06T04:55:40;3.25;;;1.70;;
70385;SDS011;63206;55.650;37.500;2022-09-06T04:58:12;7.40;;;2.00;;
70385;SDS011;63206;55.650;37.500;2022-09-06T05:00:38;5.85;;;2.20;;
70385;SDS011;63206;55.650;37.500;2022-09-06T05:03:06;5.03;;;2.13;;
70385;SDS011;63206;55.650;37.500;2022-09-06T05:05:38;3.63;;;1.75;;
70385;SDS011;63206;55.650;37.500;2022-09-06T05:08:04;4.55;;;2.30;;
70385;SDS011;63206;55.650;37.500;2022-09-06T05:10:38;4.38;;;1.95;;
70385;SDS011;63206;55.650;37.500;2022-09-06T05:13:08;5.75;;;2.22;;
70385;SDS011;63206;55.650;37.500;2022-09-06T05:15:34;5.38;;;1.98;;
70385;SDS011;63206;55.650;37.500;2022-09-06T05:18:05;9.13;;;2.10;;
70385;SDS011;63206;55.650;37.500;2022-09-06T05:20:34;5.88;;;2.17;;
70385;SDS011;63206;55.650;37.500;2022-09-06T05:23:08;4.40;;;2.00;;
70385;SDS011;63206;55.650;37.500;2022-09-06T05:25:37;4.43;;;1.80;;
70385;SDS011;63206;55.650;37.500;2022-09-06T05:28:03;2.65;;;1.52;;
70385;SDS011;63206;55.650;37.500;2022-09-06T05:30:32;4.57;;;1.70;;
70385;SDS011;63206;55.650;37.500;2022-09-06T05:32:58;4.30;;;2.20;;
70385;SDS011;63206;55.650;37.500;2022-09-06T05:35:24;4.95;;;2.30;;
70385;SDS011;63206;55.650;37.500;2022-09-06T05:37:53;5.95;;;2.50;;
70385;SDS011;63206;55.650;37.500;2022-09-06T05:40:27;6.90;;;2.40;;
70385;SDS011;63206;55.650;37.500;2022-09-06T05:42:54;3.63;;;1.90;;
70385;SDS011;63206;55.650;37.500;2022-09-06T05:45:25;5.25;;;2.40;;
70385;SDS011;63206;55.650;37.500;2022-09-06T05:47:54;4.85;;;2.10;;
70385;SDS011;63206;55.650;37.500;2022-09-06T05:50:23;4.93;;;2.38;;
70385;SDS011;63206;55.650;37.500;2022-09-06T05:52:52;5.95;;;2.10;;
70385;SDS011;63206;55.650;37.500;2022-09-06T05:55:21;4.82;;;2.10;;
70385;SDS011;63206;55.650;37.500;2022-09-06T05:57:47;5.10;;;1.83;;
70385;SDS011;63206;55.650;37.500;2022-09-06T06:00:14;3.67;;;1.75;;
70385;SDS011;63206;55.650;37.500;2022-09-06T06:02:40;4.75;;;1.88;;
70385;SDS011;63206;55.650;37.500;2022-09-06T06:05:09;2.63;;;1.67;;
70385;SDS011;63206;55.650;37.500;2022-09-06T06:07:35;6.45;;;2.20;;
70385;SDS011;63206;55.650;37.500;2022-09-06T06:10:05;3.65;;;1.77;;
70385;SDS011;63206;55.650;37.500;2022-09-06T06:12:31;2.08;;;1.58;;
70385;SDS011;63206;55.650;37.500;2022-09-06T06:14:58;4.78;;;1.85;;
70385;SDS011;63206;55.650;37.500;2022-09-06T06:17:29;4.13;;;1.90;;
70385;SDS011;63206;55.650;37.500;2022-09-06T06:19:59;3.28;;;1.90;;
70385;SDS011;63206;55.650;37.500;2022-09-06T06:22:25;3.80;;;2.00;;
70385;SDS011;63206;55.650;37.500;2022-09-06T06:24:57;5.93;;;1.90;;
70385;SDS011;63206;55.650;37.500;2022-09-06T06:27:28;4.75;;;2.10;;
70385;SDS011;63206;55.650;37.500;2022-09-06T06:30:00;7.50;;;2.05;;
70385;SDS011;63206;55.650;37.500;2022-09-06T06:32:32;6.40;;;2.40;;
70385;SDS011;63206;55.650;37.500;2022-09-06T06:35:01;5.70;;;2.13;;
70385;SDS011;63206;55.650;37.500;2022-09-06T06:37:27;4.85;;;2.33;;
70385;SDS011;63206;55.650;37.500;2022-09-06T06:39:54;5.18;;;2.30;;
70385;SDS011;63206;55.650;37.500;2022-09-06T06:42:25;5.40;;;2.50;;
70385;SDS011;63206;55.650;37.500;2022-09-06T06:44:56;6.43;;;2.55;;
70385;SDS011;63206;55.650;37.500;2022-09-06T06:47:22;5.85;;;2.60;;
70385;SDS011;63206;55.650;37.500;2022-09-06T06:49:51;6.78;;;2.78;;
70385;SDS011;63206;55.650;37.500;2022-09-06T06:52:17;13.80;;;3.97;;
70385;SDS011;63206;55.650;37.500;2022-09-06T06:54:46;6.18;;;2.60;;
70385;SDS011;63206;55.650;37.500;2022-09-06T06:57:13;6.22;;;2.83;;
70385;SDS011;63206;55.650;37.500;2022-09-06T06:59:45;8.88;;;3.13;;
70385;SDS011;63206;55.650;37.500;2022-09-06T07:02:19;10.57;;;3.05;;
70385;SDS011;63206;55.650;37.500;2022-09-06T07:04:51;7.10;;;2.83;;
70385;SDS011;63206;55.650;37.500;2022-09-06T07:07:20;6.25;;;2.97;;
70385;SDS011;63206;55.650;37.500;2022-09-06T07:09:50;6.18;;;2.45;;
70385;SDS011;63206;55.650;37.500;2022-09-06T07:12:22;6.20;;;2.70;;
70385;SDS011;63206;55.650;37.500;2022-09-06T07:14:54;5.80;;;2.33;;
70385;SDS011;63206;55.650;37.500;2022-09-06T07:17:27;6.28;;;2.58;;
70385;SDS011;63206;55.650;37.500;2022-09-06T07:19:56;6.70;;;2.75;;
70385;SDS011;63206;55.650;37.500;2022-09-06T07:22:25;5.78;;;2.40;;
70385;SDS011;63206;55.650;37.500;2022-09-06T07:24:54;7.40;;;2.53;;
70385;SDS011;63206;55.650;37.500;2022-09-06T07:27:26;5.25;;;2.38;;
70385;SDS011;63206;55.650;37.500;2022-09-06T07:29:53;7.28;;;2.60;;
70385;SDS011;63206;55.650;37.500;2022-09-06T07:32:22;6.55;;;2.40;;
70385;SDS011;63206;55.650;37.500;2022-09-06T07:34:48;6.88;;;2.58;;
70385;SDS011;63206;55.650;37.500;2022-09-06T07:37:14;5.38;;;2.53;;
70385;SDS011;63206;55.650;37.500;2022-09-06T07:39:43;6.90;;;2.50;;
70385;SDS011;63206;55.650;37.500;2022-09-06T07:42:12;7.47;;;3.17;;
70385;SDS011;63206;55.650;37.500;2022-09-06T07:44:46;10.75;;;2.80;;
70385;SDS011;63206;55.650;37.500;2022-09-06T07:47:17;4.97;;;2.50;;
70385;SDS011;63206;55.650;37.500;2022-09-06T07:49:44;4.40;;;2.25;;
70385;SDS011;63206;55.650;37.500;2022-09-06T07:52:10;5.55;;;2.45;;
70385;SDS011;63206;55.650;37.500;2022-09-06T07:54:39;9.10;;;3.20;;
70385;SDS011;63206;55.650;37.500;2022-09-06T07:57:08;8.35;;;2.58;;
70385;SDS011;63206;55.650;37.500;2022-09-06T07:59:39;8.98;;;2.67;;
70385;SDS011;63206;55.650;37.500;2022-09-06T08:02:05;8.75;;;2.85;;
70385;SDS011;63206;55.650;37.500;2022-09-06T08:04:34;7.53;;;2.58;;
70385;SDS011;63206;55.650;37.500;2022-09-06T08:07:13;5.57;;;2.45;;
70385;SDS011;63206;55.650;37.500;2022-09-06T08:09:41;5.45;;;2.10;;
70385;SDS011;63206;55.650;37.500;2022-09-06T08:12:10;5.28;;;2.15;;
70385;SDS011;63206;55.650;37.500;2022-09-06T08:14:41;4.45;;;2.25;;
70385;SDS011;63206;55.650;37.500;2022-09-06T08:17:10;3.47;;;2.05;;
70385;SDS011;63206;55.650;37.500;2022-09-06T08:19:36;6.78;;;2.25;;
70385;SDS011;63206;55.650;37.500;2022-09-06T08:22:08;6.38;;;2.50;;
70385;SDS011;63206;55.650;37.500;2022-09-06T08:24:34;5.38;;;2.30;;
70385;SDS011;63206;55.650;37.500;2022-09-06T08:27:01;5.57;;;2.00;;
70385;SDS011;63206;55.650;37.500;2022-09-06T08:29:30;5.18;;;2.30;;
70385;SDS011;63206;55.650;37.500;2022-09-06T08:31:59;6.28;;;2.40;;
70385;SDS011;63206;55.650;37.500;2022-09-06T08:34:26;5.78;;;2.40;;
70385;SDS011;63206;55.650;37.500;2022-09-06T08:36:55;4.57;;;2.38;;
70385;SDS011;63206;55.650;37.500;2022-09-06T08:39:21;4.15;;;2.30;;
70385;SDS011;63206;55.650;37.500;2022-09-06T08:41:50;5.13;;;2.13;;
70385;SDS011;63206;55.650;37.500;2022-09-06T08:44:26;5.07;;;2.00;;
70385;SDS011;63206;55.650;37.500;2022-09-06T08:46:57;8.77;;;2.30;;
70385;SDS011;63206;55.650;37.500;2022-09-06T08:49:30;5.50;;;1.80;;
70385;SDS011;63206;55.650;37.500;2022-09-06T09:00:03;4.22;;;1.90;;
70385;SDS011;63206;55.650;37.500;2022-09-06T09:03:03;3.55;;;1.63;;
70385;SDS011;63206;55.650;37.500;2022-09-06T09:05:39;4.47;;;2.13;;
70385;SDS011;63206;55.650;37.500;2022-09-06T09:11:03;3.65;;;1.70;;
70385;SDS011;63206;55.650;37.500;2022-09-06T09:16:24;3.88;;;1.58;;
70385;SDS011;63206;55.650;37.500;2022-09-06T09:18:54;2.90;;;1.90;;
70385;SDS011;63206;55.650;37.500;2022-09-06T09:21:30;2.97;;;1.60;;
70385;SDS011;63206;55.650;37.500;2022-09-06T09:24:06;5.28;;;1.85;;
70385;SDS011;63206;55.650;37.500;2022-09-06T09:29:16;5.25;;;1.92;;
70385;SDS011;63206;55.650;37.500;2022-09-06T09:31:47;4.38;;;2.10;;
70385;SDS011;63206;55.650;37.500;2022-09-06T09:37:20;6.53;;;2.00;;
70385;SDS011;63206;55.650;37.500;2022-09-06T09:39:52;4.20;;;1.92;;
70385;SDS011;63206;55.650;37.500;2022-09-06T09:42:30;5.32;;;2.20;;
70385;SDS011;63206;55.650;37.500;2022-09-06T09:45:05;5.10;;;2.05;;
70385;SDS011;63206;55.650;37.500;2022-09-06T09:47:53;6.40;;;2.50;;
70385;SDS011;63206;55.650;37.500;2022-09-06T09:53:09;3.85;;;2.00;;
70385;SDS011;63206;55.650;37.500;2022-09-06T09:55:37;3.28;;;1.73;;
70385;SDS011;63206;55.650;37.500;2022-09-06T09:58:07;4.15;;;2.00;;
70385;SDS011;63206;55.650;37.500;2022-09-06T10:00:48;4.78;;;2.10;;
70385;SDS011;63206;55.650;37.500;2022-09-06T10:03:41;3.83;;;2.00;;
70385;SDS011;63206;55.650;37.500;2022-09-06T10:06:11;6.35;;;2.17;;
70385;SDS011;63206;55.650;37.500;2022-09-06T10:08:39;5.57;;;2.28;;
70385;SDS011;63206;55.650;37.500;2022-09-06T10:11:14;4.38;;;1.98;;
70385;SDS011;63206;55.650;37.500;2022-09-06T10:13:45;4.10;;;1.83;;
70385;SDS011;63206;55.650;37.500;2022-09-06T10:16:11;5.63;;;2.00;;
70385;SDS011;63206;55.650;37.500;2022-09-06T10:18:39;5.28;;;2.10;;
70385;SDS011;63206;55.650;37.500;2022-09-06T10:21:13;3.78;;;1.95;;
70385;SDS011;63206;55.650;37.500;2022-09-06T10:26:51;3.67;;;1.90;;
70385;SDS011;63206;55.650;37.500;2022-09-06T10:29:34;4.30;;;1.92;;
70385;SDS011;63206;55.650;37.500;2022-09-06T10:35:19;3.08;;;1.70;;
70385;SDS011;63206;55.650;37.500;2022-09-06T10:40:29;5.03;;;2.00;;
70385;SDS011;63206;55.650;37.500;2022-09-06T10:43:00;4.35;;;1.98;;
70385;SDS011;63206;55.650;37.500;2022-09-06T10:48:34;4.47;;;2.00;;
70385;SDS011;63206;55.650;37.500;2022-09-06T10:59:32;5.45;;;2.20;;
70385;SDS011;63206;55.650;37.500;2022-09-06T11:04:45;4.07;;;2.00;;
70385;SDS011;63206;55.650;37.500;2022-09-06T11:07:18;6.03;;;2.00;;
70385;SDS011;63206;55.650;37.500;2022-09-06T11:10:00;3.80;;;1.90;;
70385;SDS011;63206;55.650;37.500;2022-09-06T11:15:44;4.95;;;1.88;;
70385;SDS011;63206;55.650;37.500;2022-09-06T11:19:06;4.38;;;1.90;;
70385;SDS011;63206;55.650;37.500;2022-09-06T11:24:06;7.15;;;2.30;;
70385;SDS011;63206;55.650;37.500;2022-09-06T11:26:53;3.60;;;1.70;;
70385;SDS011;63206;55.650;37.500;2022-09-06T11:29:45;4.03;;;1.80;;
70385;SDS011;63206;55.650;37.500;2022-09-06T11:32:33;5.57;;;1.77;;
70385;SDS011;63206;55.650;37.500;2022-09-06T11:35:07;4.40;;;1.90;;
70385;SDS011;63206;55.650;37.500;2022-09-06T11:37:58;4.38;;;2.00;;
70385;SDS011;63206;55.650;37.500;2022-09-06T11:40:35;4.35;;;1.98;;
70385;SDS011;63206;55.650;37.500;2022-09-06T11:45:45;5.65;;;1.90;;
70385;SDS011;63206;55.650;37.500;2022-09-06T11:53:33;3.95;;;1.90;;
70385;SDS011;63206;55.650;37.500;2022-09-06T11:56:26;5.32;;;2.15;;
70385;SDS011;63206;55.650;37.500;2022-09-06T11:59:00;4.55;;;1.98;;
70385;SDS011;63206;55.650;37.500;2022-09-06T12:01:35;6.18;;;2.47;;
70385;SDS011;63206;55.650;37.500;2022-09-06T12:04:04;4.72;;;1.90;;
70385;SDS011;63206;55.650;37.500;2022-09-06T12:06:35;7.00;;;2.10;;
70385;SDS011;63206;55.650;37.500;2022-09-06T12:09:26;4.57;;;1.95;;
70385;SDS011;63206;55.650;37.500;2022-09-06T12:12:00;5.72;;;2.03;;
70385;SDS011;63206;55.650;37.500;2022-09-06T12:19:41;4.32;;;2.00;;
70385;SDS011;63206;55.650;37.500;2022-09-06T12:28:11;4.57;;;1.90;;
70385;SDS011;63206;55.650;37.500;2022-09-06T12:30:49;4.35;;;2.17;;
70385;SDS011;63206;55.650;37.500;2022-09-06T12:33:17;4.63;;;2.00;;
70385;SDS011;63206;55.650;37.500;2022-09-06T12:36:10;4.55;;;1.80;;
70385;SDS011;63206;55.650;37.500;2022-09-06T12:41:45;4.13;;;1.98;;
70385;SDS011;63206;55.650;37.500;2022-09-06T12:44:13;6.30;;;2.30;;
70385;SDS011;63206;55.650;37.500;2022-09-06T12:46:47;4.80;;;1.98;;
70385;SDS011;63206;55.650;37.500;2022-09-06T12:49:17;5.03;;;1.98;;
70385;SDS011;63206;55.650;37.500;2022-09-06T12:51:48;4.10;;;2.13;;
70385;SDS011;63206;55.650;37.500;2022-09-06T12:54:18;5.95;;;2.35;;
70385;SDS011;63206;55.650;37.500;2022-09-06T12:56:50;5.88;;;2.20;;
70385;SDS011;63206;55.650;37.500;2022-09-06T12:59:20;5.68;;;2.40;;
70385;SDS011;63206;55.650;37.500;2022-09-06T13:04:43;4.55;;;2.00;;
70385;SDS011;63206;55.650;37.500;2022-09-06T13:07:15;5.15;;;2.13;;
70385;SDS011;63206;55.650;37.500;2022-09-06T13:09:46;6.25;;;2.47;;
70385;SDS011;63206;55.650;37.500;2022-09-06T13:12:26;5.65;;;2.22;;
70385;SDS011;63206;55.650;37.500;2022-09-06T13:15:24;5.78;;;2.10;;
70385;SDS011;63206;55.650;37.500;2022-09-06T13:17:54;7.63;;;2.45;;
70385;SDS011;63206;55.650;37.500;2022-09-06T13:21:05;6.75;;;2.53;;
70385;SDS011;63206;55.650;37.500;2022-09-06T13:26:09;5.60;;;2.55;;
70385;SDS011;63206;55.650;37.500;2022-09-06T13:28:36;5.47;;;2.30;;
70385;SDS011;63206;55.650;37.500;2022-09-06T13:31:21;6.72;;;2.22;;
70385;SDS011;63206;55.650;37.500;2022-09-06T13:33:54;6.22;;;2.38;;
70385;SDS011;63206;55.650;37.500;2022-09-06T13:36:31;5.32;;;2.20;;
70385;SDS011;63206;55.650;37.500;2022-09-06T13:39:01;6.80;;;2.30;;
70385;SDS011;63206;55.650;37.500;2022-09-06T13:43:56;4.00;;;1.98;;
70385;SDS011;63206;55.650;37.500;2022-09-06T13:46:31;4.03;;;2.45;;
70385;SDS011;63206;55.650;37.500;2022-09-06T13:48:58;4.28;;;2.05;;
70385;SDS011;63206;55.650;37.500;2022-09-06T13:51:24;5.93;;;2.30;;
70385;SDS011;63206;55.650;37.500;2022-09-06T13:54:07;5.53;;;2.40;;
70385;SDS011;63206;55.650;37.500;2022-09-06T13:56:35;6.00;;;2.42;;
70385;SDS011;63206;55.650;37.500;2022-09-06T13:59:02;5.63;;;2.28;;
70385;SDS011;63206;55.650;37.500;2022-09-06T14:01:28;8.05;;;2.30;;
70385;SDS011;63206;55.650;37.500;2022-09-06T14:03:57;6.53;;;2.15;;
70385;SDS011;63206;55.650;37.500;2022-09-06T14:06:24;4.03;;;1.95;;
70385;SDS011;63206;55.650;37.500;2022-09-06T14:08:50;4.25;;;2.10;;
70385;SDS011;63206;55.650;37.500;2022-09-06T14:11:16;6.47;;;2.50;;
70385;SDS011;63206;55.650;37.500;2022-09-06T14:13:45;5.97;;;2.38;;
70385;SDS011;63206;55.650;37.500;2022-09-06T14:16:12;5.38;;;2.25;;
70385;SDS011;63206;55.650;37.500;2022-09-06T14:18:42;6.35;;;2.15;;
70385;SDS011;63206;55.650;37.500;2022-09-06T14:21:09;5.93;;;2.30;;
70385;SDS011;63206;55.650;37.500;2022-09-06T14:23:36;6.30;;;2.33;;
70385;SDS011;63206;55.650;37.500;2022-09-06T14:26:02;8.65;;;3.15;;
70385;SDS011;63206;55.650;37.500;2022-09-06T14:28:30;7.45;;;2.75;;
70385;SDS011;63206;55.650;37.500;2022-09-06T14:33:45;7.18;;;2.40;;
70385;SDS011;63206;55.650;37.500;2022-09-06T14:36:13;9.15;;;2.60;;
70385;SDS011;63206;55.650;37.500;2022-09-06T14:38:42;5.93;;;2.28;;
70385;SDS011;63206;55.650;37.500;2022-09-06T14:41:10;6.30;;;2.42;;
70385;SDS011;63206;55.650;37.500;2022-09-06T14:43:41;5.82;;;2.40;;
70385;SDS011;63206;55.650;37.500;2022-09-06T14:46:10;7.93;;;2.65;;
70385;SDS011;63206;55.650;37.500;2022-09-06T14:48:41;6.63;;;2.30;;
70385;SDS011;63206;55.650;37.500;2022-09-06T14:51:08;6.75;;;2.45;;
70385;SDS011;63206;55.650;37.500;2022-09-06T14:53:42;5.72;;;2.40;;
70385;SDS011;63206;55.650;37.500;2022-09-06T14:56:09;9.20;;;3.05;;
70385;SDS011;63206;55.650;37.500;2022-09-06T14:58:39;6.90;;;2.80;;
70385;SDS011;63206;55.650;37.500;2022-09-06T15:03:41;7.85;;;2.88;;
70385;SDS011;63206;55.650;37.500;2022-09-06T15:06:11;6.43;;;2.83;;
70385;SDS011;63206;55.650;37.500;2022-09-06T15:08:40;8.90;;;2.80;;
70385;SDS011;63206;55.650;37.500;2022-09-06T15:11:10;7.25;;;2.80;;
70385;SDS011;63206;55.650;37.500;2022-09-06T15:13:37;6.40;;;2.58;;
70385;SDS011;63206;55.650;37.500;2022-09-06T15:18:37;9.57;;;2.65;;
70385;SDS011;63206;55.650;37.500;2022-09-06T15:21:12;7.57;;;2.72;;
70385;SDS011;63206;55.650;37.500;2022-09-06T15:23:41;5.50;;;2.40;;
70385;SDS011;63206;55.650;37.500;2022-09-06T15:26:13;6.90;;;2.33;;
70385;SDS011;63206;55.650;37.500;2022-09-06T15:28:40;5.75;;;2.00;;
70385;SDS011;63206;55.650;37.500;2022-09-06T15:31:09;3.72;;;1.75;;
70385;SDS011;63206;55.650;37.500;2022-09-06T15:33:37;6.15;;;2.42;;
70385;SDS011;63206;55.650;37.500;2022-09-06T15:36:05;5.07;;;2.20;;
70385;SDS011;63206;55.650;37.500;2022-09-06T15:38:33;7.30;;;3.53;;
70385;SDS011;63206;55.650;37.500;2022-09-06T15:41:04;8.48;;;3.58;;
70385;SDS011;63206;55.650;37.500;2022-09-06T15:43:37;5.60;;;2.40;;
70385;SDS011;63206;55.650;37.500;2022-09-06T15:46:09;4.60;;;2.17;;
70385;SDS011;63206;55.650;37.500;2022-09-06T15:48:45;4.30;;;2.08;;
70385;SDS011;63206;55.650;37.500;2022-09-06T15:51:17;6.28;;;2.15;;
70385;SDS011;63206;55.650;37.500;2022-09-06T15:53:44;7.75;;;2.33;;
70385;SDS011;63206;55.650;37.500;2022-09-06T15:56:14;6.97;;;2.20;;
70385;SDS011;63206;55.650;37.500;2022-09-06T16:01:09;5.85;;;2.20;;
70385;SDS011;63206;55.650;37.500;2022-09-06T16:03:49;4.38;;;1.80;;
70385;SDS011;63206;55.650;37.500;2022-09-06T16:06:19;6.32;;;2.03;;
70385;SDS011;63206;55.650;37.500;2022-09-06T16:08:52;4.90;;;2.10;;
70385;SDS011;63206;55.650;37.500;2022-09-06T16:11:23;5.93;;;2.10;;
70385;SDS011;63206;55.650;37.500;2022-09-06T16:13:51;4.50;;;2.20;;
70385;SDS011;63206;55.650;37.500;2022-09-06T16:16:23;2.95;;;1.60;;
70385;SDS011;63206;55.650;37.500;2022-09-06T16:18:50;5.45;;;1.75;;
70385;SDS011;63206;55.650;37.500;2022-09-06T16:21:20;4.63;;;1.88;;
70385;SDS011;63206;55.650;37.500;2022-09-06T16:23:52;8.45;;;2.00;;
70385;SDS011;63206;55.650;37.500;2022-09-06T16:26:21;3.15;;;1.80;;
70385;SDS011;63206;55.650;37.500;2022-09-06T16:28:49;4.80;;;1.90;;
70385;SDS011;63206;55.650;37.500;2022-09-06T16:31:16;5.63;;;2.20;;
70385;SDS011;63206;55.650;37.500;2022-09-06T16:33:43;4.35;;;1.80;;
70385;SDS011;63206;55.650;37.500;2022-09-06T16:36:10;5.65;;;2.08;;
70385;SDS011;63206;55.650;37.500;2022-09-06T16:38:38;5.05;;;2.40;;
70385;SDS011;63206;55.650;37.500;2022-09-06T16:41:09;6.10;;;2.20;;
70385;SDS011;63206;55.650;37.500;2022-09-06T16:43:35;4.38;;;2.22;;
70385;SDS011;63206;55.650;37.500;2022-09-06T16:46:02;8.20;;;2.30;;
70385;SDS011;63206;55.650;37.500;2022-09-06T16:48:29;6.05;;;2.45;;
70385;SDS011;63206;55.650;37.500;2022-09-06T16:50:55;4.82;;;1.92;;
70385;SDS011;63206;55.650;37.500;2022-09-06T16:53:22;5.68;;;2.38;;
70385;SDS011;63206;55.650;37.500;2022-09-06T16:55:51;6.95;;;2.10;;